sensor_id;sensor_type;location;lat;lon;timestamp;P1;durP1;ratioP1;P2;durP2;ratioP2
10550;SDS011;5324;50.684;3.862;2022-12-18T00:01:36;33.77;;;19.40;;
10550;SDS011;5324;50.684;3.862;2022-12-18T00:04:03;31.17;;;18.57;;
10550;SDS011;5324;50.684;3.862;2022-12-18T00:06:29;31.30;;;18.40;;
10550;SDS011;5324;50.684;3.862;2022-12-18T00:08:56;35.37;;;19.43;;
10550;SDS011;5324;50.684;3.862;2022-12-18T00:11:23;31.57;;;18.30;;
10550;SDS011;5324;50.684;3.862;2022-12-18T00:13:50;33.37;;;19.20;;
10550;SDS011;5324;50.684;3.862;2022-12-18T00:16:19;33.50;;;18.43;;
10550;SDS011;5324;50.684;3.862;2022-12-18T00:18:46;30.87;;;16.87;;
10550;SDS011;5324;50.684;3.862;2022-12-18T00:21:12;26.67;;;16.87;;
10550;SDS011;5324;50.684;3.862;2022-12-18T00:23:39;31.40;;;17.73;;
10550;SDS011;5324;50.684;3.862;2022-12-18T00:26:07;31.03;;;19.67;;
10550;SDS011;5324;50.684;3.862;2022-12-18T00:28:33;34.67;;;20.43;;
10550;SDS011;5324;50.684;3.862;2022-12-18T00:31:00;38.23;;;21.83;;
10550;SDS011;5324;50.684;3.862;2022-12-18T00:33:26;32.67;;;18.30;;
10550;SDS011;5324;50.684;3.862;2022-12-18T00:35:53;30.00;;;17.50;;
10550;SDS011;5324;50.684;3.862;2022-12-18T00:38:19;32.37;;;18.40;;
10550;SDS011;5324;50.684;3.862;2022-12-18T00:40:45;28.37;;;17.50;;
10550;SDS011;5324;50.684;3.862;2022-12-18T00:43:10;32.07;;;18.33;;
10550;SDS011;5324;50.684;3.862;2022-12-18T00:45:37;33.60;;;17.67;;
10550;SDS011;5324;50.684;3.862;2022-12-18T00:48:03;29.37;;;17.87;;
10550;SDS011;5324;50.684;3.862;2022-12-18T00:50:29;31.60;;;17.30;;
10550;SDS011;5324;50.684;3.862;2022-12-18T00:52:55;31.03;;;18.30;;
10550;SDS011;5324;50.684;3.862;2022-12-18T00:55:21;29.80;;;18.30;;
10550;SDS011;5324;50.684;3.862;2022-12-18T00:57:47;29.27;;;17.73;;
10550;SDS011;5324;50.684;3.862;2022-12-18T01:00:14;32.23;;;17.63;;
10550;SDS011;5324;50.684;3.862;2022-12-18T01:02:40;31.37;;;17.27;;
10550;SDS011;5324;50.684;3.862;2022-12-18T01:05:06;33.77;;;18.53;;
10550;SDS011;5324;50.684;3.862;2022-12-18T01:07:33;30.50;;;17.10;;
10550;SDS011;5324;50.684;3.862;2022-12-18T01:09:59;28.37;;;15.37;;
10550;SDS011;5324;50.684;3.862;2022-12-18T01:12:25;29.70;;;17.20;;
10550;SDS011;5324;50.684;3.862;2022-12-18T01:14:51;25.90;;;14.83;;
10550;SDS011;5324;50.684;3.862;2022-12-18T01:17:17;29.20;;;15.93;;
10550;SDS011;5324;50.684;3.862;2022-12-18T01:19:43;26.17;;;15.83;;
10550;SDS011;5324;50.684;3.862;2022-12-18T01:22:09;25.50;;;14.63;;
10550;SDS011;5324;50.684;3.862;2022-12-18T01:24:35;28.73;;;15.83;;
10550;SDS011;5324;50.684;3.862;2022-12-18T01:27:01;30.70;;;15.53;;
10550;SDS011;5324;50.684;3.862;2022-12-18T01:29:27;29.50;;;15.50;;
10550;SDS011;5324;50.684;3.862;2022-12-18T01:31:54;24.37;;;15.10;;
10550;SDS011;5324;50.684;3.862;2022-12-18T01:34:21;29.80;;;16.53;;
10550;SDS011;5324;50.684;3.862;2022-12-18T01:36:47;26.40;;;15.00;;
10550;SDS011;5324;50.684;3.862;2022-12-18T01:39:13;29.60;;;14.47;;
10550;SDS011;5324;50.684;3.862;2022-12-18T01:41:40;26.90;;;15.43;;
10550;SDS011;5324;50.684;3.862;2022-12-18T01:47:09;29.63;;;17.77;;
10550;SDS011;5324;50.684;3.862;2022-12-18T01:49:38;40.03;;;19.10;;
10550;SDS011;5324;50.684;3.862;2022-12-18T01:52:04;33.87;;;18.87;;
10550;SDS011;5324;50.684;3.862;2022-12-18T01:54:30;27.77;;;16.50;;
10550;SDS011;5324;50.684;3.862;2022-12-18T01:56:56;31.07;;;18.20;;
10550;SDS011;5324;50.684;3.862;2022-12-18T01:59:22;31.90;;;17.07;;
10550;SDS011;5324;50.684;3.862;2022-12-18T02:01:49;32.90;;;17.33;;
10550;SDS011;5324;50.684;3.862;2022-12-18T02:06:43;30.27;;;16.80;;
10550;SDS011;5324;50.684;3.862;2022-12-18T02:09:24;28.03;;;16.37;;
10550;SDS011;5324;50.684;3.862;2022-12-18T02:17:13;33.13;;;17.60;;
10550;SDS011;5324;50.684;3.862;2022-12-18T02:19:44;28.30;;;16.83;;
10550;SDS011;5324;50.684;3.862;2022-12-18T02:22:26;33.97;;;18.03;;
10550;SDS011;5324;50.684;3.862;2022-12-18T02:27:21;33.30;;;16.63;;
10550;SDS011;5324;50.684;3.862;2022-12-18T02:29:49;31.80;;;17.37;;
10550;SDS011;5324;50.684;3.862;2022-12-18T02:32:19;29.33;;;16.77;;
10550;SDS011;5324;50.684;3.862;2022-12-18T02:34:46;29.53;;;17.23;;
10550;SDS011;5324;50.684;3.862;2022-12-18T02:37:12;31.13;;;17.33;;
10550;SDS011;5324;50.684;3.862;2022-12-18T02:39:41;30.77;;;17.40;;
10550;SDS011;5324;50.684;3.862;2022-12-18T02:42:07;30.63;;;17.23;;
10550;SDS011;5324;50.684;3.862;2022-12-18T02:44:43;32.03;;;17.37;;
10550;SDS011;5324;50.684;3.862;2022-12-18T02:47:12;28.70;;;15.90;;
10550;SDS011;5324;50.684;3.862;2022-12-18T02:57:31;28.67;;;16.47;;
10550;SDS011;5324;50.684;3.862;2022-12-18T03:00:03;30.20;;;16.33;;
10550;SDS011;5324;50.684;3.862;2022-12-18T03:05:01;28.10;;;16.57;;
10550;SDS011;5324;50.684;3.862;2022-12-18T03:07:35;32.60;;;16.53;;
10550;SDS011;5324;50.684;3.862;2022-12-18T03:10:03;34.53;;;18.60;;
10550;SDS011;5324;50.684;3.862;2022-12-18T03:12:33;28.93;;;17.47;;
10550;SDS011;5324;50.684;3.862;2022-12-18T03:17:26;28.67;;;16.03;;
10550;SDS011;5324;50.684;3.862;2022-12-18T03:19:53;26.30;;;14.90;;
10550;SDS011;5324;50.684;3.862;2022-12-18T03:22:22;26.07;;;16.03;;
10550;SDS011;5324;50.684;3.862;2022-12-18T03:24:49;28.33;;;15.97;;
10550;SDS011;5324;50.684;3.862;2022-12-18T03:27:17;29.97;;;15.60;;
10550;SDS011;5324;50.684;3.862;2022-12-18T03:29:48;26.80;;;16.23;;
10550;SDS011;5324;50.684;3.862;2022-12-18T03:32:16;25.10;;;14.83;;
10550;SDS011;5324;50.684;3.862;2022-12-18T03:34:42;27.70;;;14.83;;
10550;SDS011;5324;50.684;3.862;2022-12-18T03:37:09;27.43;;;15.70;;
10550;SDS011;5324;50.684;3.862;2022-12-18T03:39:35;28.33;;;15.97;;
10550;SDS011;5324;50.684;3.862;2022-12-18T03:42:10;26.17;;;14.17;;
10550;SDS011;5324;50.684;3.862;2022-12-18T03:44:52;27.03;;;14.53;;
10550;SDS011;5324;50.684;3.862;2022-12-18T03:50:17;29.73;;;16.70;;
10550;SDS011;5324;50.684;3.862;2022-12-18T03:52:57;25.10;;;14.43;;
10550;SDS011;5324;50.684;3.862;2022-12-18T03:55:23;27.63;;;15.33;;
10550;SDS011;5324;50.684;3.862;2022-12-18T03:57:50;25.30;;;14.37;;
10550;SDS011;5324;50.684;3.862;2022-12-18T04:00:18;24.17;;;15.00;;
10550;SDS011;5324;50.684;3.862;2022-12-18T04:02:46;25.30;;;15.07;;
10550;SDS011;5324;50.684;3.862;2022-12-18T04:05:13;29.13;;;15.57;;
10550;SDS011;5324;50.684;3.862;2022-12-18T04:07:40;27.87;;;15.33;;
10550;SDS011;5324;50.684;3.862;2022-12-18T04:10:07;26.37;;;14.50;;
10550;SDS011;5324;50.684;3.862;2022-12-18T04:12:33;24.67;;;14.63;;
10550;SDS011;5324;50.684;3.862;2022-12-18T04:14:59;24.40;;;14.63;;
10550;SDS011;5324;50.684;3.862;2022-12-18T04:17:25;26.90;;;15.73;;
10550;SDS011;5324;50.684;3.862;2022-12-18T04:19:51;24.33;;;14.93;;
10550;SDS011;5324;50.684;3.862;2022-12-18T04:22:17;26.47;;;14.83;;
10550;SDS011;5324;50.684;3.862;2022-12-18T04:24:43;27.50;;;16.47;;
10550;SDS011;5324;50.684;3.862;2022-12-18T04:27:09;31.23;;;16.60;;
10550;SDS011;5324;50.684;3.862;2022-12-18T04:29:35;27.70;;;15.10;;
10550;SDS011;5324;50.684;3.862;2022-12-18T04:32:01;27.63;;;15.97;;
10550;SDS011;5324;50.684;3.862;2022-12-18T04:34:27;30.17;;;15.97;;
10550;SDS011;5324;50.684;3.862;2022-12-18T04:36:53;28.77;;;16.40;;
10550;SDS011;5324;50.684;3.862;2022-12-18T04:39:19;30.47;;;16.93;;
10550;SDS011;5324;50.684;3.862;2022-12-18T04:41:45;34.27;;;17.13;;
10550;SDS011;5324;50.684;3.862;2022-12-18T04:44:11;27.77;;;15.53;;
10550;SDS011;5324;50.684;3.862;2022-12-18T04:46:37;27.07;;;15.93;;
10550;SDS011;5324;50.684;3.862;2022-12-18T04:49:03;31.80;;;16.47;;
10550;SDS011;5324;50.684;3.862;2022-12-18T04:51:29;27.70;;;16.43;;
10550;SDS011;5324;50.684;3.862;2022-12-18T04:53:55;29.70;;;15.93;;
10550;SDS011;5324;50.684;3.862;2022-12-18T04:56:21;31.87;;;16.83;;
10550;SDS011;5324;50.684;3.862;2022-12-18T04:58:47;26.20;;;15.90;;
10550;SDS011;5324;50.684;3.862;2022-12-18T05:01:14;27.67;;;14.77;;
10550;SDS011;5324;50.684;3.862;2022-12-18T05:03:40;26.70;;;15.30;;
10550;SDS011;5324;50.684;3.862;2022-12-18T05:06:06;28.20;;;15.67;;
10550;SDS011;5324;50.684;3.862;2022-12-18T05:08:32;29.40;;;15.27;;
10550;SDS011;5324;50.684;3.862;2022-12-18T05:10:59;28.07;;;16.03;;
10550;SDS011;5324;50.684;3.862;2022-12-18T05:13:25;24.40;;;14.03;;
10550;SDS011;5324;50.684;3.862;2022-12-18T05:15:52;25.40;;;15.00;;
10550;SDS011;5324;50.684;3.862;2022-12-18T05:18:18;26.17;;;14.40;;
10550;SDS011;5324;50.684;3.862;2022-12-18T05:20:44;28.20;;;15.50;;
10550;SDS011;5324;50.684;3.862;2022-12-18T05:23:10;23.00;;;13.53;;
10550;SDS011;5324;50.684;3.862;2022-12-18T05:25:36;25.30;;;13.40;;
10550;SDS011;5324;50.684;3.862;2022-12-18T05:28:02;23.57;;;14.60;;
10550;SDS011;5324;50.684;3.862;2022-12-18T05:30:28;25.00;;;13.80;;
10550;SDS011;5324;50.684;3.862;2022-12-18T05:32:54;23.53;;;13.33;;
10550;SDS011;5324;50.684;3.862;2022-12-18T05:35:20;24.83;;;14.10;;
10550;SDS011;5324;50.684;3.862;2022-12-18T05:37:46;20.83;;;12.87;;
10550;SDS011;5324;50.684;3.862;2022-12-18T05:40:12;25.80;;;13.37;;
10550;SDS011;5324;50.684;3.862;2022-12-18T05:42:38;25.67;;;13.60;;
10550;SDS011;5324;50.684;3.862;2022-12-18T05:45:04;24.87;;;12.97;;
10550;SDS011;5324;50.684;3.862;2022-12-18T05:47:31;24.70;;;13.43;;
10550;SDS011;5324;50.684;3.862;2022-12-18T05:49:57;25.90;;;13.20;;
10550;SDS011;5324;50.684;3.862;2022-12-18T05:52:23;22.53;;;12.70;;
10550;SDS011;5324;50.684;3.862;2022-12-18T05:54:49;22.13;;;13.20;;
10550;SDS011;5324;50.684;3.862;2022-12-18T05:57:15;18.43;;;11.63;;
10550;SDS011;5324;50.684;3.862;2022-12-18T05:59:41;17.87;;;11.60;;
10550;SDS011;5324;50.684;3.862;2022-12-18T06:02:07;25.37;;;13.77;;
10550;SDS011;5324;50.684;3.862;2022-12-18T06:04:33;27.60;;;16.17;;
10550;SDS011;5324;50.684;3.862;2022-12-18T06:06:59;27.40;;;15.93;;
10550;SDS011;5324;50.684;3.862;2022-12-18T06:09:25;23.10;;;14.23;;
10550;SDS011;5324;50.684;3.862;2022-12-18T06:11:51;24.57;;;14.63;;
10550;SDS011;5324;50.684;3.862;2022-12-18T06:14:17;27.67;;;15.00;;
10550;SDS011;5324;50.684;3.862;2022-12-18T06:16:43;27.20;;;14.93;;
10550;SDS011;5324;50.684;3.862;2022-12-18T06:19:12;28.63;;;15.90;;
10550;SDS011;5324;50.684;3.862;2022-12-18T06:21:39;27.13;;;15.93;;
10550;SDS011;5324;50.684;3.862;2022-12-18T06:24:05;29.53;;;17.27;;
10550;SDS011;5324;50.684;3.862;2022-12-18T06:26:31;27.67;;;17.50;;
10550;SDS011;5324;50.684;3.862;2022-12-18T06:28:57;27.70;;;16.20;;
10550;SDS011;5324;50.684;3.862;2022-12-18T06:31:23;29.67;;;15.20;;
10550;SDS011;5324;50.684;3.862;2022-12-18T06:33:49;25.90;;;14.57;;
10550;SDS011;5324;50.684;3.862;2022-12-18T06:36:15;25.53;;;13.10;;
10550;SDS011;5324;50.684;3.862;2022-12-18T06:38:42;22.47;;;14.23;;
10550;SDS011;5324;50.684;3.862;2022-12-18T06:41:09;24.10;;;13.20;;
10550;SDS011;5324;50.684;3.862;2022-12-18T06:43:35;23.50;;;12.47;;
10550;SDS011;5324;50.684;3.862;2022-12-18T06:46:01;20.83;;;12.30;;
10550;SDS011;5324;50.684;3.862;2022-12-18T06:48:28;18.20;;;10.17;;
10550;SDS011;5324;50.684;3.862;2022-12-18T06:50:54;18.60;;;11.93;;
10550;SDS011;5324;50.684;3.862;2022-12-18T06:53:20;14.97;;;8.03;;
10550;SDS011;5324;50.684;3.862;2022-12-18T06:55:47;18.43;;;10.27;;
10550;SDS011;5324;50.684;3.862;2022-12-18T06:58:13;16.37;;;10.63;;
10550;SDS011;5324;50.684;3.862;2022-12-18T07:00:39;16.23;;;10.47;;
10550;SDS011;5324;50.684;3.862;2022-12-18T07:03:05;16.07;;;8.97;;
10550;SDS011;5324;50.684;3.862;2022-12-18T07:05:31;13.73;;;8.10;;
10550;SDS011;5324;50.684;3.862;2022-12-18T07:07:58;13.17;;;7.60;;
10550;SDS011;5324;50.684;3.862;2022-12-18T07:10:24;11.60;;;7.30;;
10550;SDS011;5324;50.684;3.862;2022-12-18T07:12:50;10.80;;;7.30;;
10550;SDS011;5324;50.684;3.862;2022-12-18T07:15:16;11.57;;;6.97;;
10550;SDS011;5324;50.684;3.862;2022-12-18T07:17:42;11.13;;;7.17;;
10550;SDS011;5324;50.684;3.862;2022-12-18T07:20:08;12.03;;;6.53;;
10550;SDS011;5324;50.684;3.862;2022-12-18T07:22:34;12.70;;;7.33;;
10550;SDS011;5324;50.684;3.862;2022-12-18T07:25:00;11.10;;;6.93;;
10550;SDS011;5324;50.684;3.862;2022-12-18T07:27:26;9.33;;;6.53;;
10550;SDS011;5324;50.684;3.862;2022-12-18T07:29:52;9.60;;;6.20;;
10550;SDS011;5324;50.684;3.862;2022-12-18T07:32:18;11.37;;;6.30;;
10550;SDS011;5324;50.684;3.862;2022-12-18T07:34:44;8.40;;;5.80;;
10550;SDS011;5324;50.684;3.862;2022-12-18T07:37:10;7.93;;;5.27;;
10550;SDS011;5324;50.684;3.862;2022-12-18T07:39:36;11.70;;;6.13;;
10550;SDS011;5324;50.684;3.862;2022-12-18T07:42:02;9.50;;;5.37;;
10550;SDS011;5324;50.684;3.862;2022-12-18T07:44:47;13.43;;;5.43;;
10550;SDS011;5324;50.684;3.862;2022-12-18T07:47:13;8.30;;;4.97;;
10550;SDS011;5324;50.684;3.862;2022-12-18T07:49:39;8.87;;;5.90;;
10550;SDS011;5324;50.684;3.862;2022-12-18T07:52:05;11.90;;;6.07;;
10550;SDS011;5324;50.684;3.862;2022-12-18T07:54:31;7.93;;;5.10;;
10550;SDS011;5324;50.684;3.862;2022-12-18T07:56:57;8.27;;;5.47;;
10550;SDS011;5324;50.684;3.862;2022-12-18T07:59:23;5.00;;;4.27;;
10550;SDS011;5324;50.684;3.862;2022-12-18T08:01:49;7.90;;;4.70;;
10550;SDS011;5324;50.684;3.862;2022-12-18T08:04:15;7.83;;;4.57;;
10550;SDS011;5324;50.684;3.862;2022-12-18T08:06:41;6.97;;;4.77;;
10550;SDS011;5324;50.684;3.862;2022-12-18T08:09:07;9.03;;;5.27;;
10550;SDS011;5324;50.684;3.862;2022-12-18T08:11:35;8.67;;;4.90;;
10550;SDS011;5324;50.684;3.862;2022-12-18T08:14:01;6.93;;;4.77;;
10550;SDS011;5324;50.684;3.862;2022-12-18T08:16:27;7.63;;;5.07;;
10550;SDS011;5324;50.684;3.862;2022-12-18T08:18:53;8.17;;;4.77;;
10550;SDS011;5324;50.684;3.862;2022-12-18T08:21:21;7.50;;;4.70;;
10550;SDS011;5324;50.684;3.862;2022-12-18T08:23:48;8.20;;;4.93;;
10550;SDS011;5324;50.684;3.862;2022-12-18T08:26:14;10.07;;;5.67;;
10550;SDS011;5324;50.684;3.862;2022-12-18T08:28:40;7.90;;;5.70;;
10550;SDS011;5324;50.684;3.862;2022-12-18T08:31:07;9.10;;;6.93;;
10550;SDS011;5324;50.684;3.862;2022-12-18T08:33:33;9.63;;;6.23;;
10550;SDS011;5324;50.684;3.862;2022-12-18T08:35:59;8.87;;;6.43;;
10550;SDS011;5324;50.684;3.862;2022-12-18T08:38:25;8.03;;;6.07;;
10550;SDS011;5324;50.684;3.862;2022-12-18T08:41:00;11.77;;;7.03;;
10550;SDS011;5324;50.684;3.862;2022-12-18T08:43:26;12.47;;;7.30;;
10550;SDS011;5324;50.684;3.862;2022-12-18T08:46:11;16.30;;;8.97;;
10550;SDS011;5324;50.684;3.862;2022-12-18T08:48:37;19.57;;;11.60;;
10550;SDS011;5324;50.684;3.862;2022-12-18T08:51:03;16.93;;;10.67;;
10550;SDS011;5324;50.684;3.862;2022-12-18T08:53:29;14.57;;;8.07;;
10550;SDS011;5324;50.684;3.862;2022-12-18T08:55:56;11.97;;;7.40;;
10550;SDS011;5324;50.684;3.862;2022-12-18T08:58:22;10.93;;;7.57;;
10550;SDS011;5324;50.684;3.862;2022-12-18T09:00:48;10.57;;;6.90;;
10550;SDS011;5324;50.684;3.862;2022-12-18T09:03:15;15.00;;;6.17;;
10550;SDS011;5324;50.684;3.862;2022-12-18T09:05:41;10.00;;;6.27;;
10550;SDS011;5324;50.684;3.862;2022-12-18T09:08:07;8.67;;;5.67;;
10550;SDS011;5324;50.684;3.862;2022-12-18T09:10:33;8.77;;;5.63;;
10550;SDS011;5324;50.684;3.862;2022-12-18T09:13:00;9.33;;;5.83;;
10550;SDS011;5324;50.684;3.862;2022-12-18T09:15:26;9.60;;;5.33;;
10550;SDS011;5324;50.684;3.862;2022-12-18T09:17:52;11.03;;;5.93;;
10550;SDS011;5324;50.684;3.862;2022-12-18T09:20:18;9.27;;;6.03;;
10550;SDS011;5324;50.684;3.862;2022-12-18T09:22:44;9.93;;;6.13;;
10550;SDS011;5324;50.684;3.862;2022-12-18T09:25:10;8.80;;;6.03;;
10550;SDS011;5324;50.684;3.862;2022-12-18T09:27:36;8.77;;;5.63;;
10550;SDS011;5324;50.684;3.862;2022-12-18T09:30:03;9.83;;;6.57;;
10550;SDS011;5324;50.684;3.862;2022-12-18T09:32:29;12.03;;;6.20;;
10550;SDS011;5324;50.684;3.862;2022-12-18T09:34:55;32.33;;;28.67;;
10550;SDS011;5324;50.684;3.862;2022-12-18T09:37:21;8.97;;;5.87;;
10550;SDS011;5324;50.684;3.862;2022-12-18T09:39:47;9.30;;;6.13;;
10550;SDS011;5324;50.684;3.862;2022-12-18T09:42:22;8.40;;;5.70;;
10550;SDS011;5324;50.684;3.862;2022-12-18T09:44:50;10.67;;;5.97;;
10550;SDS011;5324;50.684;3.862;2022-12-18T09:47:37;12.43;;;6.77;;
10550;SDS011;5324;50.684;3.862;2022-12-18T09:50:04;9.73;;;5.87;;
10550;SDS011;5324;50.684;3.862;2022-12-18T09:52:37;9.03;;;5.73;;
10550;SDS011;5324;50.684;3.862;2022-12-18T09:55:09;8.40;;;5.80;;
10550;SDS011;5324;50.684;3.862;2022-12-18T09:57:38;9.60;;;6.03;;
10550;SDS011;5324;50.684;3.862;2022-12-18T10:00:13;9.10;;;6.23;;
10550;SDS011;5324;50.684;3.862;2022-12-18T10:02:41;10.50;;;5.77;;
10550;SDS011;5324;50.684;3.862;2022-12-18T10:05:09;10.20;;;6.50;;
10550;SDS011;5324;50.684;3.862;2022-12-18T10:12:52;12.87;;;6.80;;
10550;SDS011;5324;50.684;3.862;2022-12-18T10:17:58;10.07;;;7.00;;
10550;SDS011;5324;50.684;3.862;2022-12-18T10:20:37;13.07;;;7.80;;
10550;SDS011;5324;50.684;3.862;2022-12-18T10:25:50;12.50;;;6.80;;
10550;SDS011;5324;50.684;3.862;2022-12-18T10:28:19;12.70;;;6.53;;
10550;SDS011;5324;50.684;3.862;2022-12-18T10:30:46;11.10;;;7.67;;
10550;SDS011;5324;50.684;3.862;2022-12-18T10:33:22;15.67;;;8.00;;
10550;SDS011;5324;50.684;3.862;2022-12-18T10:35:49;13.30;;;8.20;;
10550;SDS011;5324;50.684;3.862;2022-12-18T10:43:14;13.80;;;7.73;;
10550;SDS011;5324;50.684;3.862;2022-12-18T10:45:41;13.47;;;7.60;;
10550;SDS011;5324;50.684;3.862;2022-12-18T10:48:17;12.73;;;7.37;;
10550;SDS011;5324;50.684;3.862;2022-12-18T10:50:45;11.77;;;7.87;;
10550;SDS011;5324;50.684;3.862;2022-12-18T10:53:13;13.20;;;8.27;;
10550;SDS011;5324;50.684;3.862;2022-12-18T10:55:40;14.70;;;7.13;;
10550;SDS011;5324;50.684;3.862;2022-12-18T11:01:12;13.33;;;8.17;;
10550;SDS011;5324;50.684;3.862;2022-12-18T11:06:14;14.73;;;8.93;;
10550;SDS011;5324;50.684;3.862;2022-12-18T11:08:42;16.93;;;9.50;;
10550;SDS011;5324;50.684;3.862;2022-12-18T11:11:19;20.57;;;9.80;;
10550;SDS011;5324;50.684;3.862;2022-12-18T11:14:20;10.90;;;7.77;;
10550;SDS011;5324;50.684;3.862;2022-12-18T11:16:47;19.97;;;9.30;;
10550;SDS011;5324;50.684;3.862;2022-12-18T11:19:28;19.33;;;9.37;;
10550;SDS011;5324;50.684;3.862;2022-12-18T11:21:56;14.83;;;9.27;;
10550;SDS011;5324;50.684;3.862;2022-12-18T11:26:48;17.73;;;10.63;;
10550;SDS011;5324;50.684;3.862;2022-12-18T11:29:19;22.10;;;11.73;;
10550;SDS011;5324;50.684;3.862;2022-12-18T11:31:48;21.33;;;10.90;;
10550;SDS011;5324;50.684;3.862;2022-12-18T11:34:22;20.63;;;11.40;;
10550;SDS011;5324;50.684;3.862;2022-12-18T11:36:51;18.07;;;10.80;;
10550;SDS011;5324;50.684;3.862;2022-12-18T11:39:26;16.73;;;10.10;;
10550;SDS011;5324;50.684;3.862;2022-12-18T11:44:47;17.10;;;10.30;;
10550;SDS011;5324;50.684;3.862;2022-12-18T11:47:29;19.17;;;11.27;;
10550;SDS011;5324;50.684;3.862;2022-12-18T11:49:59;20.00;;;10.50;;
10550;SDS011;5324;50.684;3.862;2022-12-18T11:52:33;16.57;;;11.03;;
10550;SDS011;5324;50.684;3.862;2022-12-18T11:55:00;18.50;;;10.43;;
10550;SDS011;5324;50.684;3.862;2022-12-18T11:57:32;19.60;;;10.23;;
10550;SDS011;5324;50.684;3.862;2022-12-18T12:00:03;18.87;;;10.57;;
10550;SDS011;5324;50.684;3.862;2022-12-18T12:10:14;18.10;;;10.50;;
10550;SDS011;5324;50.684;3.862;2022-12-18T12:20:36;20.47;;;12.50;;
10550;SDS011;5324;50.684;3.862;2022-12-18T12:25:37;19.43;;;11.73;;
10550;SDS011;5324;50.684;3.862;2022-12-18T12:33:37;20.77;;;11.83;;
10550;SDS011;5324;50.684;3.862;2022-12-18T12:36:18;19.80;;;11.63;;
10550;SDS011;5324;50.684;3.862;2022-12-18T12:38:53;18.00;;;11.30;;
10550;SDS011;5324;50.684;3.862;2022-12-18T12:41:21;23.27;;;11.93;;
10550;SDS011;5324;50.684;3.862;2022-12-18T12:44:09;20.87;;;12.20;;
10550;SDS011;5324;50.684;3.862;2022-12-18T12:46:39;20.13;;;11.67;;
10550;SDS011;5324;50.684;3.862;2022-12-18T12:49:11;23.37;;;12.27;;
10550;SDS011;5324;50.684;3.862;2022-12-18T12:51:39;20.47;;;12.27;;
10550;SDS011;5324;50.684;3.862;2022-12-18T12:54:09;20.87;;;12.37;;
10550;SDS011;5324;50.684;3.862;2022-12-18T12:56:54;23.37;;;13.03;;
10550;SDS011;5324;50.684;3.862;2022-12-18T12:59:26;23.50;;;12.33;;
10550;SDS011;5324;50.684;3.862;2022-12-18T13:02:18;22.20;;;12.63;;
10550;SDS011;5324;50.684;3.862;2022-12-18T13:04:50;23.93;;;11.40;;
10550;SDS011;5324;50.684;3.862;2022-12-18T13:07:31;20.03;;;12.20;;
10550;SDS011;5324;50.684;3.862;2022-12-18T13:10:14;22.33;;;12.67;;
10550;SDS011;5324;50.684;3.862;2022-12-18T13:12:59;21.80;;;12.77;;
10550;SDS011;5324;50.684;3.862;2022-12-18T13:18:04;20.77;;;11.83;;
10550;SDS011;5324;50.684;3.862;2022-12-18T13:20:44;21.17;;;12.10;;
10550;SDS011;5324;50.684;3.862;2022-12-18T13:23:25;20.20;;;12.20;;
10550;SDS011;5324;50.684;3.862;2022-12-18T13:25:55;19.67;;;11.73;;
10550;SDS011;5324;50.684;3.862;2022-12-18T13:31:07;23.23;;;12.47;;
10550;SDS011;5324;50.684;3.862;2022-12-18T13:33:45;24.43;;;13.20;;
10550;SDS011;5324;50.684;3.862;2022-12-18T13:36:16;22.00;;;11.77;;
10550;SDS011;5324;50.684;3.862;2022-12-18T13:38:42;23.73;;;12.47;;
10550;SDS011;5324;50.684;3.862;2022-12-18T13:43:48;24.20;;;11.73;;
10550;SDS011;5324;50.684;3.862;2022-12-18T13:46:30;21.00;;;12.23;;
10550;SDS011;5324;50.684;3.862;2022-12-18T13:54:35;24.50;;;11.73;;
10550;SDS011;5324;50.684;3.862;2022-12-18T13:57:01;24.13;;;12.87;;
10550;SDS011;5324;50.684;3.862;2022-12-18T13:59:37;21.80;;;11.30;;
10550;SDS011;5324;50.684;3.862;2022-12-18T14:02:14;20.53;;;12.13;;
10550;SDS011;5324;50.684;3.862;2022-12-18T14:04:40;24.37;;;12.50;;
10550;SDS011;5324;50.684;3.862;2022-12-18T14:07:07;19.37;;;11.80;;
10550;SDS011;5324;50.684;3.862;2022-12-18T14:09:40;25.23;;;12.80;;
10550;SDS011;5324;50.684;3.862;2022-12-18T14:12:14;25.03;;;12.97;;
10550;SDS011;5324;50.684;3.862;2022-12-18T14:14:59;20.70;;;12.03;;
10550;SDS011;5324;50.684;3.862;2022-12-18T14:17:25;24.63;;;12.73;;
10550;SDS011;5324;50.684;3.862;2022-12-18T14:19:52;21.07;;;12.43;;
10550;SDS011;5324;50.684;3.862;2022-12-18T14:22:19;22.40;;;11.73;;
10550;SDS011;5324;50.684;3.862;2022-12-18T14:24:46;22.13;;;11.97;;
10550;SDS011;5324;50.684;3.862;2022-12-18T14:27:19;24.53;;;13.07;;
10550;SDS011;5324;50.684;3.862;2022-12-18T14:29:46;21.87;;;11.63;;
10550;SDS011;5324;50.684;3.862;2022-12-18T14:32:12;23.50;;;12.87;;
10550;SDS011;5324;50.684;3.862;2022-12-18T14:34:41;27.83;;;12.90;;
10550;SDS011;5324;50.684;3.862;2022-12-18T14:37:09;25.13;;;13.13;;
10550;SDS011;5324;50.684;3.862;2022-12-18T14:39:36;24.27;;;12.97;;
10550;SDS011;5324;50.684;3.862;2022-12-18T14:42:02;23.17;;;12.87;;
10550;SDS011;5324;50.684;3.862;2022-12-18T14:44:28;22.83;;;12.73;;
10550;SDS011;5324;50.684;3.862;2022-12-18T14:46:54;20.60;;;12.33;;
10550;SDS011;5324;50.684;3.862;2022-12-18T14:49:31;22.83;;;12.90;;
10550;SDS011;5324;50.684;3.862;2022-12-18T14:52:13;28.20;;;13.63;;
10550;SDS011;5324;50.684;3.862;2022-12-18T14:54:41;23.87;;;12.77;;
10550;SDS011;5324;50.684;3.862;2022-12-18T14:59:43;23.73;;;13.17;;
10550;SDS011;5324;50.684;3.862;2022-12-18T15:02:21;25.87;;;13.67;;
10550;SDS011;5324;50.684;3.862;2022-12-18T15:04:59;22.70;;;12.77;;
10550;SDS011;5324;50.684;3.862;2022-12-18T15:07:25;23.57;;;12.00;;
10550;SDS011;5324;50.684;3.862;2022-12-18T15:10:02;24.20;;;13.07;;
10550;SDS011;5324;50.684;3.862;2022-12-18T15:12:35;21.23;;;11.87;;
10550;SDS011;5324;50.684;3.862;2022-12-18T15:15:02;19.07;;;11.50;;
10550;SDS011;5324;50.684;3.862;2022-12-18T15:17:29;22.63;;;13.40;;
10550;SDS011;5324;50.684;3.862;2022-12-18T15:20:02;20.47;;;11.87;;
10550;SDS011;5324;50.684;3.862;2022-12-18T15:22:29;24.17;;;12.67;;
10550;SDS011;5324;50.684;3.862;2022-12-18T15:24:56;21.27;;;12.03;;
10550;SDS011;5324;50.684;3.862;2022-12-18T15:30:02;22.10;;;11.50;;
10550;SDS011;5324;50.684;3.862;2022-12-18T15:32:29;20.80;;;12.40;;
10550;SDS011;5324;50.684;3.862;2022-12-18T15:35:28;23.53;;;12.00;;
10550;SDS011;5324;50.684;3.862;2022-12-18T15:37:47;23.47;;;13.03;;
10550;SDS011;5324;50.684;3.862;2022-12-18T15:40:15;21.97;;;12.10;;
10550;SDS011;5324;50.684;3.862;2022-12-18T15:42:41;24.20;;;12.40;;
10550;SDS011;5324;50.684;3.862;2022-12-18T15:45:26;24.53;;;13.30;;
10550;SDS011;5324;50.684;3.862;2022-12-18T15:47:53;21.57;;;12.50;;
10550;SDS011;5324;50.684;3.862;2022-12-18T15:50:19;20.43;;;11.60;;
10550;SDS011;5324;50.684;3.862;2022-12-18T15:52:45;20.53;;;11.57;;
10550;SDS011;5324;50.684;3.862;2022-12-18T15:55:13;21.47;;;12.23;;
10550;SDS011;5324;50.684;3.862;2022-12-18T15:57:58;23.30;;;12.60;;
10550;SDS011;5324;50.684;3.862;2022-12-18T16:00:24;25.07;;;12.50;;
10550;SDS011;5324;50.684;3.862;2022-12-18T16:02:50;23.13;;;11.77;;
10550;SDS011;5324;50.684;3.862;2022-12-18T16:05:17;21.53;;;12.37;;
10550;SDS011;5324;50.684;3.862;2022-12-18T16:07:43;21.40;;;11.57;;
10550;SDS011;5324;50.684;3.862;2022-12-18T16:10:09;25.87;;;12.10;;
10550;SDS011;5324;50.684;3.862;2022-12-18T16:12:35;22.20;;;11.67;;
10550;SDS011;5324;50.684;3.862;2022-12-18T16:15:02;19.60;;;11.40;;
10550;SDS011;5324;50.684;3.862;2022-12-18T16:17:32;24.37;;;12.33;;
10550;SDS011;5324;50.684;3.862;2022-12-18T16:19:58;25.63;;;13.13;;
10550;SDS011;5324;50.684;3.862;2022-12-18T16:22:26;25.60;;;13.30;;
10550;SDS011;5324;50.684;3.862;2022-12-18T16:24:54;23.83;;;12.03;;
10550;SDS011;5324;50.684;3.862;2022-12-18T16:27:20;22.97;;;11.30;;